Rio Bonito do Iguacu, Brazil
Current Conditions -  °F | °C
As of 7:00 PM on Wednesday 22 Oct 2014 (Local Time) from SBCA Reporting Station
Clear Clear  
Wind Chill: 81°   Ceiling: Unl
Heat Index: 81°   Visibility: 6mi
Dew Point: 59°   Wind: 9mph
Humidity: 48%   Direction: 120°ESE
Pressure: 30.06"   Gusts: NA
Location:  25.49°S, 52.53°W
Report Text: SBCA 222100Z 12008KT CAVOK 27/15 Q1018
Loading
Personal Weather Stations






























Interactive Weather Map
Tropical Storm Tracking
New forecast layout! Learn more

10-Day Weather Forecast

Advertisements
Track Severe Weather on mobile